createdAt,value
2019-01-25T05:03:47.586Z,-3.704834
2019-01-25T05:07:15.512Z,-3.674622
2019-01-25T05:10:43.646Z,-3.735046
2019-01-25T05:14:11.507Z,-3.77533
2019-01-25T05:17:39.377Z,-3.735046
2019-01-25T05:21:07.248Z,-3.735046
2019-01-25T05:24:36.095Z,-3.704834
2019-01-25T05:28:03.964Z,-3.674622
2019-01-25T05:31:32.817Z,-3.694763
2019-01-25T05:35:00.674Z,-3.724976
2019-01-25T05:38:28.723Z,-3.704834
2019-01-25T05:41:57.395Z,-3.704834
2019-01-25T05:45:25.251Z,-3.724976
2019-01-25T05:48:53.877Z,-3.704834
2019-01-25T05:52:22.293Z,-3.704834
2019-01-25T05:55:50.165Z,-3.674622
2019-01-25T05:59:18.018Z,-3.664551
2019-01-25T06:02:46.879Z,-3.604126
2019-01-25T06:06:14.786Z,-3.573914
2019-01-25T06:09:43.638Z,-3.573914
2019-01-25T06:13:13.489Z,-3.604126
2019-01-25T06:16:41.363Z,-3.594055
2019-01-25T06:20:09.218Z,-3.573914
2019-01-25T06:23:37.086Z,-3.604126
2019-01-25T06:27:04.965Z,-3.604126
2019-01-25T06:30:33.839Z,-3.573914
2019-01-25T06:34:01.681Z,-3.543701
2019-01-25T06:37:29.556Z,-3.573914
2019-01-25T06:40:57.529Z,-3.543701
2019-01-25T06:44:25.386Z,-3.594055
2019-01-25T06:47:53.259Z,-3.594055
2019-01-25T06:51:21.128Z,-3.594055
2019-01-25T06:54:48.980Z,-3.604126
2019-01-25T06:58:16.854Z,-3.52356
2019-01-25T07:01:44.723Z,-3.513489
2019-01-25T07:05:12.577Z,-3.513489
2019-01-25T07:08:40.450Z,-3.513489
2019-01-25T07:12:08.309Z,-3.513489
2019-01-25T07:15:37.170Z,-3.493347
2019-01-25T07:19:05.039Z,-3.483276
2019-01-25T07:22:32.910Z,-3.483276
2019-01-25T07:26:00.768Z,-3.52356
2019-01-25T07:29:28.647Z,-3.483276
2019-01-25T07:32:56.516Z,-3.483276
2019-01-25T07:36:26.366Z,-3.422852
2019-01-25T07:39:54.371Z,-3.473206
2019-01-25T07:43:22.125Z,-3.473206
2019-01-25T07:46:50.158Z,-3.473206
2019-01-25T07:50:17.845Z,-3.453064
2019-01-25T07:53:45.731Z,-3.442993
2019-01-25T07:57:13.562Z,-3.392639
2019-01-25T08:00:41.440Z,-3.392639
2019-01-25T08:04:09.299Z,-3.392639
2019-01-25T08:07:38.155Z,-3.382568
2019-01-25T08:11:06.017Z,-3.302002
2019-01-25T08:14:34.877Z,-3.382568
2019-01-25T08:18:02.746Z,-3.382568
2019-01-25T08:21:30.597Z,-3.302002
2019-01-25T08:24:59.460Z,-3.302002
2019-01-25T08:28:27.339Z,-3.291931
2019-01-25T08:31:55.202Z,-3.291931
2019-01-25T08:35:23.200Z,-3.27179
2019-01-25T08:38:50.948Z,-3.231506
2019-01-25T08:42:18.856Z,-3.181152
2019-01-25T08:45:46.667Z,-3.231506
2019-01-25T08:49:15.566Z,-3.261719
2019-01-25T08:52:43.434Z,-3.291931
2019-01-25T08:56:11.255Z,-3.261719
2019-01-25T08:59:39.142Z,-3.181152
2019-01-25T09:03:08.956Z,-3.241577
2019-01-25T09:06:36.825Z,-3.231506
2019-01-25T09:10:04.694Z,-3.15094
2019-01-25T09:13:32.556Z,-3.090515
2019-01-25T09:17:00.426Z,-3.090515
2019-01-25T09:20:28.290Z,-3.060303
2019-01-25T09:23:56.142Z,-3.050232
2019-01-25T09:27:24.021Z,-3.050232
2019-01-25T09:30:51.898Z,-3.050232
2019-01-25T09:34:19.771Z,-3.050232
2019-01-25T09:37:47.634Z,-3.080444
2019-01-25T09:41:15.505Z,-3.060303
2019-01-25T09:44:44.366Z,-3.060303
2019-01-25T09:48:12.221Z,-2.979736
2019-01-25T09:51:40.085Z,-2.909241
2019-01-25T09:55:07.952Z,-2.838745
2019-01-25T09:58:35.816Z,-2.838745
2019-01-25T10:02:03.695Z,-2.879028
2019-01-25T10:05:32.558Z,-2.919312
2019-01-25T10:09:00.412Z,-2.909241
2019-01-25T10:12:28.277Z,-2.848816
2019-01-25T10:16:01.106Z,-2.879028
2019-01-25T10:19:28.966Z,-2.818604
2019-01-25T10:22:57.833Z,-2.798462
2019-01-25T10:26:25.700Z,-2.738037
2019-01-25T10:29:53.606Z,-2.798462
2019-01-25T10:33:23.443Z,-2.798462
2019-01-25T10:36:51.315Z,-2.798462
2019-01-25T10:40:19.214Z,-2.758179
2019-01-25T10:43:47.069Z,-2.788391
2019-01-25T10:47:15.935Z,-2.838745
2019-01-25T10:50:43.808Z,-2.818604
2019-01-25T10:54:11.658Z,-2.848816
2019-01-25T10:57:39.538Z,-2.798462
2019-01-25T11:01:07.414Z,-2.727966
2019-01-25T11:04:35.261Z,-2.727966
2019-01-25T11:08:03.129Z,-2.667542
2019-01-25T11:11:30.995Z,-2.657471
2019-01-25T11:14:58.857Z,-2.637329
2019-01-25T11:18:27.724Z,-2.727966
2019-01-25T11:21:55.600Z,-2.727966
2019-01-25T11:25:23.473Z,-2.697754
2019-01-25T11:28:51.326Z,-2.738037
2019-01-25T11:32:19.201Z,-2.687683
2019-01-25T11:35:47.069Z,-2.697754
2019-01-25T11:39:14.932Z,-2.687683
2019-01-25T11:42:42.806Z,-2.637329
2019-01-25T11:46:10.674Z,-2.717896
2019-01-25T11:49:38.528Z,-2.717896
2019-01-25T11:53:06.400Z,-2.717896
2019-01-25T11:56:34.267Z,-2.758179
2019-01-25T12:00:02.118Z,-2.76825
2019-01-25T12:03:29.992Z,-2.76825
2019-01-25T12:06:57.858Z,-2.697754
2019-01-25T12:10:25.710Z,-2.667542
2019-01-25T12:13:53.584Z,-2.667542
2019-01-25T12:17:21.463Z,-2.657471
2019-01-25T12:20:50.303Z,-2.657471
2019-01-25T12:24:18.169Z,-2.697754
2019-01-25T12:27:47.032Z,-2.657471
2019-01-25T12:31:14.892Z,-2.667542
2019-01-25T12:34:42.768Z,-2.667542
2019-01-25T12:38:10.642Z,-2.637329
2019-01-25T12:41:38.501Z,-2.687683
2019-01-25T12:45:06.634Z,-2.717896
2019-01-25T12:48:34.509Z,-2.697754
2019-01-25T12:52:02.389Z,-2.717896
2019-01-25T12:55:32.840Z,-2.687683
2019-01-25T12:59:00.098Z,-2.687683
2019-01-25T13:02:27.972Z,-2.697754
2019-01-25T13:05:56.824Z,-2.717896
2019-01-25T13:09:24.696Z,-2.758179
2019-01-25T13:12:52.576Z,-2.76825
2019-01-25T13:16:21.100Z,-2.717896
2019-01-25T13:19:48.977Z,-2.697754
2019-01-25T13:23:16.845Z,-2.727966
2019-01-25T13:26:44.713Z,-2.717896
2019-01-25T13:30:12.579Z,-2.697754
2019-01-25T13:33:41.444Z,-2.667542
2019-01-25T13:37:09.293Z,-2.667542
2019-01-25T13:40:37.200Z,-2.637329
2019-01-25T13:44:05.117Z,-2.687683
2019-01-25T13:47:36.643Z,-2.657471
2019-01-25T13:51:04.522Z,-2.687683
2019-01-25T13:54:32.398Z,-2.667542
2019-01-25T13:58:00.272Z,-2.667542
2019-01-25T14:01:34.470Z,-2.667542
2019-01-25T14:04:59.793Z,-2.697754
2019-01-25T14:08:27.040Z,-2.727966
2019-01-25T14:11:54.916Z,-2.727966
2019-01-25T14:15:22.803Z,-2.758179
2019-01-25T14:18:52.150Z,-2.76825
2019-01-25T14:22:19.670Z,-2.738037
2019-01-25T14:25:47.596Z,-2.738037
2019-01-25T14:29:15.526Z,-2.697754
2019-01-25T14:32:43.413Z,-2.697754
2019-01-25T14:36:11.403Z,-2.687683
2019-01-25T14:39:39.234Z,-2.697754
2019-01-25T14:43:07.094Z,-2.687683
2019-01-25T14:46:35.983Z,-2.717896
2019-01-25T14:50:03.988Z,-2.727966
2019-01-25T14:53:31.899Z,-2.717896
2019-01-25T14:56:59.763Z,-2.667542
2019-01-25T15:00:27.637Z,-2.697754
2019-01-25T15:03:55.504Z,-2.717896
2019-01-25T15:07:23.352Z,-2.727966
2019-01-25T15:10:51.227Z,-2.717896
2019-01-25T15:14:19.132Z,-2.758179
2019-01-25T15:17:46.992Z,-2.727966
2019-01-25T15:21:14.870Z,-2.717896
2019-01-25T15:24:42.743Z,-2.697754
2019-01-25T15:28:10.625Z,-2.687683
2019-01-25T15:31:38.477Z,-2.687683
2019-01-25T15:35:06.396Z,-2.687683
2019-01-25T15:38:34.296Z,-2.717896
2019-01-25T15:42:02.181Z,-2.667542
2019-01-25T15:45:31.107Z,-2.727966
2019-01-25T15:49:00.018Z,-2.738037
2019-01-25T15:52:27.916Z,-2.738037
2019-01-25T15:55:55.801Z,-2.727966
2019-01-25T15:59:23.720Z,-2.717896
2019-01-25T16:02:51.645Z,-2.687683
2019-01-25T16:06:19.538Z,-2.667542
2019-01-25T16:09:47.464Z,-2.727966
2019-01-25T16:13:15.313Z,-2.727966
2019-01-25T16:16:43.186Z,-2.717896
2019-01-25T16:20:11.063Z,-2.697754
2019-01-25T16:23:38.937Z,-2.667542
2019-01-25T16:27:06.832Z,-2.697754
2019-01-25T16:30:34.706Z,-2.687683
2019-01-25T16:34:02.560Z,-2.697754
2019-01-25T16:37:30.436Z,-2.727966
2019-01-25T16:40:58.312Z,-2.738037
2019-01-25T16:44:26.166Z,-2.738037
2019-01-25T16:47:55.035Z,-2.738037
2019-01-25T16:51:23.940Z,-2.727966
2019-01-25T16:54:52.198Z,-2.758179
2019-01-25T16:58:20.052Z,-2.76825
2019-01-25T17:01:47.937Z,-2.738037
2019-01-25T17:05:15.960Z,-2.727966
2019-01-25T17:08:43.896Z,-2.727966
2019-01-25T17:12:11.818Z,-2.758179
2019-01-25T17:15:39.732Z,-2.76825
2019-01-25T17:19:07.583Z,-2.798462
2019-01-25T17:22:35.459Z,-2.798462
2019-01-25T17:26:03.344Z,-2.818604
2019-01-25T17:29:32.193Z,-2.838745
2019-01-25T17:33:00.057Z,-2.838745
2019-01-25T17:36:27.936Z,-2.818604
2019-01-25T17:39:55.792Z,-2.838745
2019-01-25T17:43:23.658Z,-2.848816
2019-01-25T17:46:51.528Z,-2.818604
2019-01-25T17:50:19.381Z,-2.838745
2019-01-25T17:53:47.271Z,-2.89917
2019-01-25T17:57:15.135Z,-2.909241
2019-01-25T18:00:42.991Z,-2.89917
2019-01-25T18:04:10.865Z,-2.939453
2019-01-25T18:07:38.730Z,-2.939453
2019-01-25T18:11:07.579Z,-2.949524
2019-01-25T18:14:35.448Z,-2.939453
2019-01-25T18:18:04.310Z,-2.909241
2019-01-25T18:21:33.161Z,-2.939453
2019-01-25T18:25:02.028Z,-2.969666
2019-01-25T18:28:29.894Z,-3.03009
2019-01-25T18:31:57.747Z,-3.02002
2019-01-25T18:35:25.629Z,-3.02002
2019-01-25T18:38:53.502Z,-3.060303
2019-01-25T18:42:21.351Z,-3.050232
2019-01-25T18:45:50.220Z,-3.009949
2019-01-25T18:49:18.105Z,-3.03009
2019-01-25T18:52:45.957Z,-3.100586
2019-01-25T18:56:13.842Z,-3.080444
2019-01-25T18:59:41.709Z,-3.060303
2019-01-25T19:03:09.586Z,-3.080444
2019-01-25T19:06:37.448Z,-3.080444
2019-01-25T19:10:05.313Z,-3.100586
2019-01-25T19:13:33.224Z,-3.130798
2019-01-25T19:17:01.093Z,-3.090515
2019-01-25T19:20:30.732Z,-3.090515
2019-01-25T19:23:58.745Z,-3.100586
2019-01-25T19:27:26.692Z,-3.120728
2019-01-25T19:30:54.562Z,-3.120728
2019-01-25T19:34:22.430Z,-3.161011
2019-01-25T19:37:50.293Z,-3.120728
2019-01-25T19:41:18.160Z,-3.120728
2019-01-25T19:44:46.018Z,-3.120728
2019-01-25T19:48:13.903Z,-3.120728
2019-01-25T19:51:41.769Z,-3.161011
2019-01-25T19:55:09.634Z,-3.211365
2019-01-25T19:58:37.514Z,-3.211365
2019-01-25T20:02:05.385Z,-3.201294
2019-01-25T20:05:33.266Z,-3.201294
2019-01-25T20:09:01.123Z,-3.181152
2019-01-25T20:12:29.980Z,-3.120728
2019-01-25T20:15:57.856Z,-3.120728
2019-01-25T20:19:25.712Z,-3.120728
2019-01-25T20:22:53.582Z,-3.050232
2019-01-25T20:26:21.456Z,-3.080444
2019-01-25T20:29:49.306Z,-3.080444
2019-01-25T20:33:17.182Z,-3.080444
2019-01-25T20:36:45.050Z,-3.050232
2019-01-25T20:40:12.907Z,-3.060303
2019-01-25T20:43:40.779Z,-3.080444
2019-01-25T20:47:08.738Z,-3.080444
2019-01-25T20:50:37.588Z,-3.02002
2019-01-25T20:54:05.459Z,-2.969666
2019-01-25T20:57:33.332Z,-2.969666
2019-01-25T21:01:01.284Z,-2.969666
2019-01-25T21:04:29.062Z,-2.969666
2019-01-25T21:07:56.941Z,-2.969666
2019-01-25T21:11:24.793Z,-2.969666
2019-01-25T21:14:53.651Z,-2.939453
2019-01-25T21:18:21.548Z,-2.969666
2019-01-25T21:21:49.399Z,-2.979736
2019-01-25T21:25:17.269Z,-2.979736
2019-01-25T21:28:45.135Z,-3.009949
2019-01-25T21:32:12.990Z,-2.979736
2019-01-25T21:35:40.864Z,-2.969666
2019-01-25T21:39:08.728Z,-3.009949
2019-01-25T21:42:36.582Z,-2.979736
2019-01-25T21:46:05.447Z,-2.979736
2019-01-25T21:49:33.317Z,-2.949524
2019-01-25T21:53:01.177Z,-2.949524
2019-01-25T21:56:29.065Z,-2.949524
2019-01-25T21:59:56.946Z,-2.939453
2019-01-25T22:03:24.836Z,-2.919312
2019-01-25T22:06:53.677Z,-2.969666
2019-01-25T22:10:21.555Z,-3.009949
2019-01-25T22:13:52.858Z,-3.009949
2019-01-25T22:17:19.264Z,-3.02002
2019-01-25T22:20:47.132Z,-3.03009
2019-01-25T22:24:15.004Z,-3.009949
2019-01-25T22:27:43.853Z,-3.009949
2019-01-25T22:31:11.718Z,-3.009949
2019-01-25T22:34:39.586Z,-3.009949
2019-01-25T22:38:08.437Z,-2.979736
2019-01-25T22:41:36.316Z,-2.969666
2019-01-25T22:45:04.180Z,-2.969666
2019-01-25T22:48:33.490Z,-2.949524
2019-01-25T22:52:01.889Z,-3.009949
2019-01-25T22:55:29.763Z,-2.979736
2019-01-25T22:58:57.673Z,-2.969666
